Time;durP1;ratioP1;P1;durP2;ratioP2;P2;SDS_P1;SDS_P2;PMS_P1;PMS_P2;Temp;Humidity;BMP_temperature;BMP_pressure;BME280_temperature;BME280_humidity;BME280_pressure;Samples;Min_cycle;Max_cycle;Signal;HPM_P1;HPM_P2
2021/07/23 00:00:02;;;;;;;;;;;;;;;22.17;52.89;101858.66;5016169;28;942;-67
2021/07/23 00:02:27;;;;;;;;;;;;;;;22.16;52.97;101849.66;5015950;28;828;-68
2021/07/23 00:04:52;;;;;;;;;;;;;;;22.14;52.33;101853.53;5016073;28;1010;-68
2021/07/23 00:07:18;;;;;;;;;;;;;;;22.14;53.31;101848.09;5015959;28;938;-68
2021/07/23 00:09:43;;;;;;;;;;;;;;;22.12;53.30;101847.38;5002385;28;1956;-68
2021/07/23 00:12:08;;;;;;;;;;;;;;;22.05;54.01;101847.13;4996509;28;1014;-68
2021/07/23 00:14:33;;;;;;;;;;;;;;;22.07;52.90;101846.97;4996419;28;1034;-68
2021/07/23 00:16:58;;;;;;;;;;;;;;;22.05;52.55;101840.81;4996171;28;1914;-68
2021/07/23 00:19:23;;;;;;;;;;;;;;;22.06;52.56;101837.13;4996428;28;867;-68
2021/07/23 00:21:48;;;;;;;;;;;;;;;22.04;53.47;101837.25;5039768;28;1855;-68
2021/07/23 00:24:13;;;;;;;;;;;;;;;22.06;52.89;101834.41;5015987;28;1018;-68
2021/07/23 00:26:38;;;;;;;;;;;;;;;22.04;52.75;101831.84;5015776;28;918;-68
2021/07/23 00:29:03;;;;;;;;;;;;;;;22.03;52.73;101837.44;5012241;28;1843;-68
2021/07/23 00:31:28;;;;;;;;;;;;;;;22.05;52.47;101838.97;4996452;28;1026;-68
2021/07/23 00:33:53;;;;;;;;;;;;;;;22.02;53.57;101833.88;4996026;28;1001;-68
2021/07/23 00:36:19;;;;;;;;;;;;;;;21.96;52.33;101834.41;4996210;28;1894;-68
2021/07/23 00:38:44;;;;;;;;;;;;;;;21.98;51.94;101835.13;4996149;28;1959;-68
2021/07/23 00:41:09;;;;;;;;;;;;;;;21.83;53.03;101828.47;5047415;28;1881;-68
2021/07/23 00:43:34;;;;;;;;;;;;;;;21.88;52.97;101828.00;5015336;28;1067;-67
2021/07/23 00:45:59;;;;;;;;;;;;;;;21.94;53.21;101822.00;5015607;28;1070;-68
2021/07/23 00:48:25;;;;;;;;;;;;;;;21.93;53.52;101823.84;5005138;28;1900;-68
2021/07/23 00:50:50;;;;;;;;;;;;;;;21.93;53.10;101823.00;5009723;28;1850;-68
2021/07/23 00:53:15;;;;;;;;;;;;;;;21.95;52.55;101826.44;5015082;28;1865;-68
2021/07/23 00:55:40;;;;;;;;;;;;;;;21.92;53.68;101824.00;5015214;28;866;-68
2021/07/23 00:58:05;;;;;;;;;;;;;;;21.93;52.53;101823.00;5007720;28;1958;-68
2021/07/23 01:00:30;;;;;;;;;;;;;;;21.91;52.13;101825.00;4995554;28;965;-67
2021/07/23 01:02:55;;;;;;;;;;;;;;;21.87;53.08;101829.00;4995438;28;1049;-67
2021/07/23 01:05:20;;;;;;;;;;;;;;;21.85;52.12;101821.06;4995489;28;1053;-67
2021/07/23 01:07:45;;;;;;;;;;;;;;;21.86;52.52;101821.88;4995411;28;1064;-67
2021/07/23 01:10:10;;;;;;;;;;;;;;;21.87;53.00;101821.72;5003542;28;1957;-67
2021/07/23 01:12:35;;;;;;;;;;;;;;;21.84;53.21;101822.06;5015066;28;922;-67
2021/07/23 01:15:01;;;;;;;;;;;;;;;21.85;52.68;101822.91;5014896;28;840;-67
2021/07/23 01:17:26;;;;;;;;;;;;;;;21.82;53.12;101821.34;5013199;28;1977;-67
2021/07/23 01:19:51;;;;;;;;;;;;;;;21.79;52.29;101822.50;5014987;28;1041;-67
2021/07/23 01:22:16;;;;;;;;;;;;;;;21.79;52.86;101819.78;5020306;28;1025;-68
2021/07/23 01:24:41;;;;;;;;;;;;;;;21.80;52.77;101824.22;5036640;28;1327;-67
2021/07/23 01:27:06;;;;;;;;;;;;;;;21.79;52.60;101819.78;5005943;28;1856;-68
2021/07/23 01:29:31;;;;;;;;;;;;;;;21.80;52.63;101818.78;5002306;28;966;-67
2021/07/23 01:31:56;;;;;;;;;;;;;;;21.82;52.89;101827.63;5001611;28;811;-67
2021/07/23 01:34:21;;;;;;;;;;;;;;;21.82;52.55;101822.19;5007548;28;1890;-68
2021/07/23 01:36:46;;;;;;;;;;;;;;;21.78;53.19;101815.34;5021310;28;1966;-68
2021/07/23 01:39:11;;;;;;;;;;;;;;;21.77;52.68;101813.66;5021193;28;978;-68
2021/07/23 01:41:37;;;;;;;;;;;;;;;21.76;53.44;101820.06;5036624;28;1251;-67
2021/07/23 01:44:02;;;;;;;;;;;;;;;21.76;52.63;101811.94;5018294;28;1859;-67
2021/07/23 01:46:27;;;;;;;;;;;;;;;21.74;52.91;101807.66;5001824;28;950;-67
2021/07/23 01:48:52;;;;;;;;;;;;;;;21.72;53.24;101810.50;5001882;28;958;-68
2021/07/23 01:51:17;;;;;;;;;;;;;;;21.68;53.35;101819.09;5001529;28;998;-67
2021/07/23 01:53:42;;;;;;;;;;;;;;;21.69;53.26;101802.66;5003897;28;1679;-68
2021/07/23 01:56:07;;;;;;;;;;;;;;;21.67;53.08;101807.41;5036496;28;1953;-67
2021/07/23 01:58:34;;;;;;;;;;;;;;;21.67;52.61;101814.69;5020846;28;1772;-68
2021/07/23 02:00:59;;;;;;;;;;;;;;;21.66;52.98;101799.41;5021199;28;784;-67
2021/07/23 02:03:24;;;;;;;;;;;;;;;21.66;54.02;101803.00;5034578;28;1950;-68
2021/07/23 02:05:49;;;;;;;;;;;;;;;21.66;54.05;101802.13;5021081;28;807;-68
2021/07/23 02:08:14;;;;;;;;;;;;;;;21.64;53.31;101794.13;5020996;28;1001;-68
2021/07/23 02:10:39;;;;;;;;;;;;;;;21.55;53.56;101797.72;5021243;28;978;-67
2021/07/23 02:13:05;;;;;;;;;;;;;;;21.54;53.63;101793.28;5021030;28;1851;-69
2021/07/23 02:15:30;;;;;;;;;;;;;;;21.58;53.40;101800.16;5032924;28;819;-70
2021/07/23 02:17:55;;;;;;;;;;;;;;;21.61;53.14;101801.72;5001387;28;1907;-68
2021/07/23 02:20:20;;;;;;;;;;;;;;;21.61;53.46;101799.84;5001340;28;835;-68
2021/07/23 02:22:45;;;;;;;;;;;;;;;21.62;53.25;101798.84;5001289;28;1058;-68
2021/07/23 02:25:10;;;;;;;;;;;;;;;21.62;53.33;101798.00;5001493;28;1808;-68
2021/07/23 02:27:35;;;;;;;;;;;;;;;21.61;52.88;101804.44;5021457;28;954;-68
2021/07/23 02:30:00;;;;;;;;;;;;;;;21.60;53.80;101795.44;5020980;28;919;-67
2021/07/23 02:32:25;;;;;;;;;;;;;;;21.59;53.91;101796.44;5034381;28;1251;-67
2021/07/23 02:34:50;;;;;;;;;;;;;;;21.60;53.18;101795.44;5015954;28;1960;-67
2021/07/23 02:37:16;;;;;;;;;;;;;;;21.60;53.37;101797.28;5018107;28;1898;-68
2021/07/23 02:39:41;;;;;;;;;;;;;;;21.61;53.12;101797.16;5017606;28;1053;-68
2021/07/23 02:42:06;;;;;;;;;;;;;;;21.60;53.40;101800.84;5017755;28;800;-67
2021/07/23 02:44:31;;;;;;;;;;;;;;;21.58;53.77;101797.44;5006201;28;2043;-67
2021/07/23 02:46:56;;;;;;;;;;;;;;;21.56;53.66;101793.16;4998469;28;1061;-67
2021/07/23 02:49:21;;;;;;;;;;;;;;;21.56;54.47;101794.00;4998060;28;954;-67
2021/07/23 02:51:46;;;;;;;;;;;;;;;21.57;53.45;101784.88;4997859;28;851;-68
2021/07/23 02:54:11;;;;;;;;;;;;;;;21.56;54.25;101785.88;5010580;28;1651;-68
2021/07/23 02:56:36;;;;;;;;;;;;;;;21.56;53.59;101794.00;5008795;28;1969;-67
2021/07/23 02:59:01;;;;;;;;;;;;;;;21.45;53.75;101786.06;5041337;28;1961;-67
2021/07/23 03:01:26;;;;;;;;;;;;;;;21.47;54.11;101779.50;5017411;28;866;-67
2021/07/23 03:03:51;;;;;;;;;;;;;;;21.47;54.06;101773.22;5006845;28;1851;-68
2021/07/23 03:06:17;;;;;;;;;;;;;;;21.50;53.83;101772.06;4997691;28;1002;-67
2021/07/23 03:08:43;;;;;;;;;;;;;;;21.42;54.04;101776.34;4997507;28;780;-68
2021/07/23 03:11:08;;;;;;;;;;;;;;;21.47;53.89;101765.94;5029127;28;1240;-67
2021/07/23 03:13:33;;;;;;;;;;;;;;;21.48;53.47;101769.50;4997438;28;815;-68
2021/07/23 03:15:58;;;;;;;;;;;;;;;21.50;54.26;101770.19;5006615;28;2167;-67
2021/07/23 03:18:23;;;;;;;;;;;;;;;21.50;53.51;101767.47;5016786;28;1979;-67
2021/07/23 03:20:48;;;;;;;;;;;;;;;21.46;53.76;101758.78;5017035;28;966;-67
2021/07/23 03:23:13;;;;;;;;;;;;;;;21.47;54.20;101767.78;5016621;28;1937;-68
2021/07/23 03:25:38;;;;;;;;;;;;;;;21.41;53.66;101760.22;4997603;28;1925;-67
2021/07/23 03:28:03;;;;;;;;;;;;;;;21.45;53.83;101756.22;4997397;28;796;-67
2021/07/23 03:30:28;;;;;;;;;;;;;;;21.41;53.91;101743.97;4997029;28;1177;-67
2021/07/23 03:32:53;;;;;;;;;;;;;;;21.40;54.16;101742.25;4997264;28;1065;-67
2021/07/23 03:35:19;;;;;;;;;;;;;;;21.44;55.38;101740.97;4998503;28;2213;-67
2021/07/23 03:37:44;;;;;;;;;;;;;;;21.41;53.71;101742.09;4997177;28;1898;-68
2021/07/23 03:40:09;;;;;;;;;;;;;;;21.27;54.52;101736.31;5028408;28;918;-68
2021/07/23 03:42:34;;;;;;;;;;;;;;;21.32;55.02;101736.69;5003516;28;1877;-68
2021/07/23 03:44:59;;;;;;;;;;;;;;;21.24;54.84;101739.31;5016375;28;792;-68
2021/07/23 03:47:24;;;;;;;;;;;;;;;21.30;54.79;101734.16;5016368;28;914;-67
2021/07/23 03:49:49;;;;;;;;;;;;;;;21.34;54.61;101723.84;5016452;28;1002;-67
2021/07/23 03:52:14;;;;;;;;;;;;;;;21.28;54.73;101724.47;5011946;28;1966;-68
2021/07/23 03:54:39;;;;;;;;;;;;;;;20.97;55.32;101726.47;4996576;28;915;-68
2021/07/23 03:57:04;;;;;;;;;;;;;;;20.90;55.58;101731.66;4996361;28;1894;-68
2021/07/23 03:59:29;;;;;;;;;;;;;;;21.11;55.42;101731.47;4996753;28;836;-68
2021/07/23 04:01:55;;;;;;;;;;;;;;;21.09;54.97;101731.63;4996344;28;1010;-67
2021/07/23 04:04:20;;;;;;;;;;;;;;;20.95;55.65;101729.38;4998755;28;1711;-68
2021/07/23 04:06:45;;;;;;;;;;;;;;;20.97;55.24;101730.03;5027457;28;1903;-67
2021/07/23 04:09:10;;;;;;;;;;;;;;;20.89;55.58;101729.94;5047835;28;915;-68
2021/07/23 04:11:46;;;;;;;;;;;;;;;20.93;55.33;101734.06;5016251;28;807;-67
2021/07/23 04:14:11;;;;;;;;;;;;;;;20.90;54.78;101739.78;5016428;28;779;-67
2021/07/23 04:16:36;;;;;;;;;;;;;;;20.93;55.54;101738.63;5015085;28;1918;-67
2021/07/23 04:19:01;;;;;;;;;;;;;;;20.95;55.58;101742.91;5015868;28;1248;-67
2021/07/23 04:21:26;;;;;;;;;;;;;;;20.94;55.35;101741.19;5031311;28;1182;-67
2021/07/23 04:23:51;;;;;;;;;;;;;;;21.05;54.36;101735.59;5015647;28;919;-67
2021/07/23 04:26:16;;;;;;;;;;;;;;;21.07;54.98;101744.44;5015881;28;958;-68
2021/07/23 04:28:41;;;;;;;;;;;;;;;21.16;54.85;101742.69;5012327;28;1695;-67
2021/07/23 04:31:06;;;;;;;;;;;;;;;21.19;54.52;101736.13;5004454;28;1668;-67
2021/07/23 04:33:31;;;;;;;;;;;;;;;21.20;54.30;101732.47;5015659;28;787;-67
2021/07/23 04:35:56;;;;;;;;;;;;;;;21.02;54.92;101729.63;5014260;28;818;-67
2021/07/23 04:38:21;;;;;;;;;;;;;;;21.01;55.10;101727.91;5015558;28;1898;-67
2021/07/23 04:40:47;;;;;;;;;;;;;;;21.07;55.18;101732.75;5014712;28;1813;-68
2021/07/23 04:43:12;;;;;;;;;;;;;;;21.10;54.82;101727.91;5015324;28;938;-67
2021/07/23 04:45:37;;;;;;;;;;;;;;;21.09;54.76;101731.63;5015349;28;804;-67
2021/07/23 04:48:02;;;;;;;;;;;;;;;21.12;53.93;101725.91;5015468;28;1006;-67
2021/07/23 04:50:27;;;;;;;;;;;;;;;21.14;54.29;101726.59;5015402;28;1395;-67
2021/07/23 04:52:52;;;;;;;;;;;;;;;21.18;54.55;101726.28;5014653;28;1637;-68
2021/07/23 04:55:17;;;;;;;;;;;;;;;21.17;54.42;101727.28;5014756;28;847;-68
2021/07/23 04:57:43;;;;;;;;;;;;;;;21.07;54.87;101711.94;5015137;28;1950;-67
2021/07/23 05:00:08;;;;;;;;;;;;;;;21.07;55.37;101716.50;5013901;28;1946;-68
2021/07/23 05:02:34;;;;;;;;;;;;;;;20.92;55.23;101716.09;5015257;28;894;-67
2021/07/23 05:04:59;;;;;;;;;;;;;;;20.62;55.98;101716.25;5014680;28;1272;-67
2021/07/23 05:07:24;;;;;;;;;;;;;;;20.70;56.05;101713.69;5014613;28;1336;-68
2021/07/23 05:09:49;;;;;;;;;;;;;;;20.51;56.31;101711.00;5014711;28;1327;-68
2021/07/23 05:12:14;;;;;;;;;;;;;;;20.63;56.71;101717.97;5014287;28;1925;-67
2021/07/23 05:14:39;;;;;;;;;;;;;;;20.94;58.22;101713.25;5014589;28;1821;-67
2021/07/23 05:17:04;;;;;;;;;;;;;;;20.94;57.56;101708.69;5012685;28;1922;-67
2021/07/23 05:19:29;;;;;;;;;;;;;;;21.04;57.72;101712.22;5015359;28;855;-67
2021/07/23 05:21:54;;;;;;;;;;;;;;;21.02;57.42;101716.91;5015146;28;1509;-68
2021/07/23 05:24:19;;;;;;;;;;;;;;;21.06;56.93;101712.06;5029007;28;2090;-68
2021/07/23 05:26:44;;;;;;;;;;;;;;;21.09;56.72;101717.19;5014547;28;1738;-68
2021/07/23 05:29:10;;;;;;;;;;;;;;;21.12;57.54;101719.63;5014520;28;1660;-68
2021/07/23 05:31:35;;;;;;;;;;;;;;;21.11;56.71;101718.78;5013134;28;2056;-68
2021/07/23 05:34:03;;;;;;;;;;;;;;;21.11;56.80;101712.50;5014241;28;1457;-69
2021/07/23 05:36:28;;;;;;;;;;;;;;;21.12;57.38;101717.78;5014570;28;1961;-70
2021/07/23 05:38:53;;;;;;;;;;;;;;;21.19;56.70;101719.88;5014605;28;1505;-69
2021/07/23 05:41:18;;;;;;;;;;;;;;;21.19;56.16;101722.59;5013491;28;1761;-69
2021/07/23 05:43:43;;;;;;;;;;;;;;;21.15;57.16;101725.59;5012267;28;1708;-70
2021/07/23 05:46:09;;;;;;;;;;;;;;;21.15;56.52;101731.00;5014732;28;1659;-69
2021/07/23 05:48:34;;;;;;;;;;;;;;;21.16;55.86;101734.56;5015281;28;894;-69
2021/07/23 05:50:59;;;;;;;;;;;;;;;21.13;56.36;101724.91;5045532;28;1602;-69
2021/07/23 05:53:24;;;;;;;;;;;;;;;21.14;56.39;101723.88;5014051;28;1806;-69
2021/07/23 05:55:49;;;;;;;;;;;;;;;21.13;56.92;101727.63;5014369;28;1013;-69
2021/07/23 05:58:14;;;;;;;;;;;;;;;21.13;56.76;101724.91;5014030;28;1924;-69
2021/07/23 06:00:40;;;;;;;;;;;;;;;21.15;57.38;101725.59;5014753;28;1136;-69
2021/07/23 06:03:06;;;;;;;;;;;;;;;21.15;56.43;101722.88;5014300;28;792;-69
2021/07/23 06:05:31;;;;;;;;;;;;;;;21.13;57.28;101711.34;5014297;28;2016;-69
2021/07/23 06:07:56;;;;;;;;;;;;;;;21.15;56.72;101717.44;5015444;28;847;-69
2021/07/23 06:10:21;;;;;;;;;;;;;;;21.14;56.33;101715.75;5018868;28;961;-69
2021/07/23 06:12:46;;;;;;;;;;;;;;;21.13;56.76;101722.19;5014049;28;1887;-69
2021/07/23 06:15:11;;;;;;;;;;;;;;;21.17;56.79;101727.28;4998751;28;1940;-69
2021/07/23 06:17:36;;;;;;;;;;;;;;;21.15;55.86;101720.16;4998793;28;1973;-69
2021/07/23 06:20:01;;;;;;;;;;;;;;;21.14;55.96;101723.88;4998399;28;788;-69
2021/07/23 06:22:26;;;;;;;;;;;;;;;21.14;56.21;101723.00;4999012;28;1843;-69
2021/07/23 06:24:54;;;;;;;;;;;;;;;21.14;56.81;101713.03;5017793;28;1041;-69
2021/07/23 06:27:19;;;;;;;;;;;;;;;21.15;56.50;101719.31;5018184;28;819;-69
2021/07/23 06:29:44;;;;;;;;;;;;;;;21.12;56.61;101717.78;5017886;28;1033;-69
2021/07/23 06:32:09;;;;;;;;;;;;;;;21.12;57.68;101720.47;5005479;28;1834;-69
2021/07/23 06:34:34;;;;;;;;;;;;;;;21.11;56.78;101717.91;4998101;28;2056;-69
2021/07/23 06:36:59;;;;;;;;;;;;;;;21.11;56.43;101718.78;4998211;28;1950;-69
2021/07/23 06:39:24;;;;;;;;;;;;;;;21.13;56.22;101722.19;4998051;28;851;-70
2021/07/23 06:41:50;;;;;;;;;;;;;;;21.11;56.82;101707.94;5006478;28;1908;-69
2021/07/23 06:44:15;;;;;;;;;;;;;;;21.12;56.35;101700.66;5017453;28;1077;-69
2021/07/23 06:46:40;;;;;;;;;;;;;;;21.11;56.70;101705.22;5017691;28;792;-70
2021/07/23 06:49:05;;;;;;;;;;;;;;;21.12;56.95;101706.06;5017708;28;1057;-69
2021/07/23 06:51:30;;;;;;;;;;;;;;;21.09;56.97;101704.50;5017890;28;967;-69
2021/07/23 06:53:55;;;;;;;;;;;;;;;21.11;56.69;101705.22;5006881;28;1860;-69
2021/07/23 06:56:20;;;;;;;;;;;;;;;21.11;56.82;101707.94;4997701;28;1914;-69
2021/07/23 06:58:45;;;;;;;;;;;;;;;21.11;57.01;101701.66;4997653;28;1212;-69
2021/07/23 07:01:12;;;;;;;;;;;;;;;21.10;56.83;101713.50;5029047;28;890;-69
2021/07/23 07:03:37;;;;;;;;;;;;;;;21.13;56.55;101705.94;4997948;28;788;-69
2021/07/23 07:06:02;;;;;;;;;;;;;;;21.11;56.51;101701.66;5008235;28;1952;-69
2021/07/23 07:08:27;;;;;;;;;;;;;;;21.10;56.83;101714.34;5017059;28;919;-69
2021/07/23 07:10:52;;;;;;;;;;;;;;;21.07;57.29;101714.63;5016991;28;1057;-69
2021/07/23 07:13:17;;;;;;;;;;;;;;;21.01;57.24;101714.34;5032323;28;1695;-69
2021/07/23 07:15:42;;;;;;;;;;;;;;;21.04;56.55;101712.22;5017437;28;783;-69
2021/07/23 07:18:07;;;;;;;;;;;;;;;21.08;56.95;101716.34;5004008;28;1973;-69
2021/07/23 07:20:33;;;;;;;;;;;;;;;21.08;57.00;101718.19;5028321;28;1878;-69
2021/07/23 07:22:58;;;;;;;;;;;;;;;21.10;56.96;101713.50;4997416;28;822;-69
2021/07/23 07:25:23;;;;;;;;;;;;;;;21.08;57.54;101712.78;5029274;28;1265;-69
2021/07/23 07:27:48;;;;;;;;;;;;;;;21.07;57.29;101711.94;5028718;28;2855;-69
2021/07/23 07:30:13;;;;;;;;;;;;;;;21.08;56.63;101712.78;5009059;28;1986;-69
2021/07/23 07:32:38;;;;;;;;;;;;;;;21.10;56.66;101717.06;5016612;28;958;-69
2021/07/23 07:35:04;;;;;;;;;;;;;;;21.10;56.69;101718.91;5031756;28;958;-69
2021/07/23 07:37:30;;;;;;;;;;;;;;;21.07;56.66;101725.47;5016832;28;1955;-69
2021/07/23 07:39:55;;;;;;;;;;;;;;;21.09;56.90;101719.91;5016529;28;854;-69
2021/07/23 07:42:20;;;;;;;;;;;;;;;21.07;57.23;101717.34;5023658;28;1888;-69
2021/07/23 07:44:46;;;;;;;;;;;;;;;21.09;56.92;101719.91;5048206;28;1243;-69
2021/07/23 07:47:11;;;;;;;;;;;;;;;21.09;56.99;101725.34;5016348;28;839;-69
2021/07/23 07:49:36;;;;;;;;;;;;;;;21.07;57.68;101711.94;5016278;28;973;-69
2021/07/23 07:52:01;;;;;;;;;;;;;;;21.07;57.76;101716.50;5016343;28;961;-69
2021/07/23 07:54:27;;;;;;;;;;;;;;;21.08;57.97;101708.22;5015740;28;1715;-69
2021/07/23 07:56:54;;;;;;;;;;;;;;;21.09;57.25;101718.06;5016043;28;1898;-69
2021/07/23 07:59:19;;;;;;;;;;;;;;;21.08;58.04;101710.06;5031101;28;1303;-69
2021/07/23 08:01:44;;;;;;;;;;;;;;;21.11;58.50;101715.19;5016426;28;958;-69
2021/07/23 08:04:11;;;;;;;;;;;;;;;20.99;57.59;101714.50;5016258;28;819;-69
2021/07/23 08:06:38;;;;;;;;;;;;;;;20.79;58.13;101715.53;5006165;28;1884;-69
2021/07/23 08:09:05;;;;;;;;;;;;;;;20.62;57.78;101721.69;4996301;28;752;-69
2021/07/23 08:11:30;;;;;;;;;;;;;;;20.68;58.58;101713.84;4996922;28;796;-69
2021/07/23 08:13:55;;;;;;;;;;;;;;;20.73;58.60;101710.72;5028858;28;1945;-69
2021/07/23 08:16:20;;;;;;;;;;;;;;;20.92;58.42;101709.81;5031440;28;1977;-69
2021/07/23 08:18:45;;;;;;;;;;;;;;;20.98;58.16;101712.78;5015743;28;856;-69
2021/07/23 08:21:10;;;;;;;;;;;;;;;21.02;57.83;101719.63;5030902;28;1568;-69
2021/07/23 08:23:35;;;;;;;;;;;;;;;21.02;57.93;101713.34;5015745;28;902;-69
2021/07/23 08:26:04;;;;;;;;;;;;;;;21.06;57.62;101715.63;4998046;28;1862;-69
2021/07/23 08:28:29;;;;;;;;;;;;;;;21.06;57.39;101710.22;4996592;28;775;-69
2021/07/23 08:30:54;;;;;;;;;;;;;;;20.89;57.40;101713.69;4995034;28;808;-69
2021/07/23 08:33:19;;;;;;;;;;;;;;;20.91;57.77;101714.38;5027610;28;1212;-69
2021/07/23 08:35:45;;;;;;;;;;;;;;;20.80;58.08;101714.53;4996033;28;978;-69
2021/07/23 08:38:10;;;;;;;;;;;;;;;20.70;57.64;101711.00;5013180;28;2015;-69
2021/07/23 08:40:35;;;;;;;;;;;;;;;20.47;57.87;101717.69;5015434;28;922;-69
2021/07/23 08:43:02;;;;;;;;;;;;;;;20.46;57.77;101719.53;5030600;28;917;-69
2021/07/23 08:45:27;;;;;;;;;;;;;;;20.38;57.86;101714.84;5015537;28;1983;-69
2021/07/23 08:47:52;;;;;;;;;;;;;;;20.47;58.23;101710.44;5015232;28;1050;-69
2021/07/23 08:50:17;;;;;;;;;;;;;;;20.49;57.87;101711.13;4998085;28;2022;-69
2021/07/23 08:52:42;;;;;;;;;;;;;;;20.62;57.30;101711.69;4995710;28;898;-69
2021/07/23 08:55:07;;;;;;;;;;;;;;;20.42;57.27;101716.25;5027001;28;1227;-69
2021/07/23 08:57:32;;;;;;;;;;;;;;;20.29;57.79;101707.53;5002982;28;1962;-69
2021/07/23 08:59:57;;;;;;;;;;;;;;;20.06;58.04;101715.06;5030395;28;1073;-69
2021/07/23 09:02:22;;;;;;;;;;;;;;;20.08;57.98;101712.22;5015077;28;907;-69
2021/07/23 09:04:47;;;;;;;;;;;;;;;20.27;58.10;101708.66;5003040;28;1945;-69
2021/07/23 09:07:13;;;;;;;;;;;;;;;20.37;57.74;101718.56;5027115;28;1208;-69
2021/07/23 09:09:38;;;;;;;;;;;;;;;20.27;57.89;101716.78;4995373;28;962;-69
2021/07/23 09:12:03;;;;;;;;;;;;;;;20.26;57.31;101710.53;4995422;28;828;-69
2021/07/23 09:14:28;;;;;;;;;;;;;;;20.26;57.64;101710.53;5004871;28;1865;-69
2021/07/23 09:16:53;;;;;;;;;;;;;;;20.14;57.68;101716.22;5015170;28;1906;-69
2021/07/23 09:19:18;;;;;;;;;;;;;;;20.10;58.08;101711.06;5030276;28;1211;-69
2021/07/23 09:21:43;;;;;;;;;;;;;;;20.40;57.62;101703.88;5030040;28;1332;-69
2021/07/23 09:24:09;;;;;;;;;;;;;;;20.34;57.15;101702.56;5023972;28;2010;-69
2021/07/23 09:26:34;;;;;;;;;;;;;;;20.03;57.79;101699.13;5046684;28;1329;-69
2021/07/23 09:29:01;;;;;;;;;;;;;;;20.21;57.52;101695.72;5015102;28;934;-69
2021/07/23 09:31:29;;;;;;;;;;;;;;;20.31;56.77;101691.16;5015035;28;771;-69
2021/07/23 09:33:54;;;;;;;;;;;;;;;19.92;57.87;101696.53;5014817;28;1893;-69
2021/07/23 09:36:19;;;;;;;;;;;;;;;20.09;57.61;101687.72;5029829;28;1957;-69
2021/07/23 09:38:45;;;;;;;;;;;;;;;19.99;57.25;101691.41;5014370;28;2025;-69
2021/07/23 09:41:10;;;;;;;;;;;;;;;20.17;57.51;101689.72;5014741;28;864;-69
2021/07/23 09:43:35;;;;;;;;;;;;;;;20.01;57.73;101679.47;5018251;28;891;-69
2021/07/23 09:46:00;;;;;;;;;;;;;;;20.31;56.81;101681.19;5009794;28;1848;-69
2021/07/23 09:48:25;;;;;;;;;;;;;;;20.24;57.26;101669.22;4998960;28;982;-69
2021/07/23 09:50:50;;;;;;;;;;;;;;;20.18;57.83;101682.47;4999228;28;998;-68
2021/07/23 09:53:21;;;;;;;;;;;;;;;20.18;57.41;101668.94;4998951;28;1049;-69
2021/07/23 09:55:46;;;;;;;;;;;;;;;20.08;57.24;101674.31;4998781;28;918;-69
2021/07/23 09:58:11;;;;;;;;;;;;;;;19.97;56.99;101675.31;5009737;28;1971;-69
2021/07/23 10:00:36;;;;;;;;;;;;;;;19.95;56.81;101663.78;5033636;28;1348;-69
2021/07/23 10:03:01;;;;;;;;;;;;;;;20.12;57.36;101659.53;5018375;28;828;-69
2021/07/23 10:05:30;;;;;;;;;;;;;;;20.20;56.56;101653.41;5018350;28;855;-69
2021/07/23 10:07:56;;;;;;;;;;;;;;;20.17;57.30;101662.66;5018348;28;772;-70
2021/07/23 10:10:21;;;;;;;;;;;;;;;20.41;56.85;101656.88;5023243;28;1767;-70
2021/07/23 10:12:46;;;;;;;;;;;;;;;20.31;56.87;101645.13;5050150;28;1223;-69
2021/07/23 10:15:11;;;;;;;;;;;;;;;20.51;56.25;101655.00;5018632;28;993;-70
2021/07/23 10:17:36;;;;;;;;;;;;;;;20.30;56.99;101648.84;5050818;28;1922;-69
2021/07/23 10:20:01;;;;;;;;;;;;;;;20.36;56.36;101650.97;5018873;28;1005;-69
2021/07/23 10:22:26;;;;;;;;;;;;;;;20.26;56.45;101645.56;5017709;28;1877;-69
2021/07/23 10:24:51;;;;;;;;;;;;;;;20.39;57.19;101645.31;5018454;28;886;-68
2021/07/23 10:27:16;;;;;;;;;;;;;;;20.43;56.08;101644.00;5033054;28;1351;-68
2021/07/23 10:29:43;;;;;;;;;;;;;;;20.43;56.03;101639.44;5014361;28;1811;-68
2021/07/23 10:32:08;;;;;;;;;;;;;;;20.14;56.77;101637.72;4998663;28;763;-69
2021/07/23 10:34:33;;;;;;;;;;;;;;;20.26;56.49;101632.03;4998054;28;978;-68
2021/07/23 10:36:58;;;;;;;;;;;;;;;20.25;57.24;101635.72;4998090;28;1898;-68
2021/07/23 10:39:25;;;;;;;;;;;;;;;20.28;55.97;101635.44;4998206;28;1866;-69
2021/07/23 10:41:50;;;;;;;;;;;;;;;20.23;57.23;101629.63;5017568;28;1865;-69
2021/07/23 10:44:15;;;;;;;;;;;;;;;20.38;56.16;101638.19;5017631;28;867;-68
2021/07/23 10:46:40;;;;;;;;;;;;;;;20.43;56.24;101636.75;5017522;28;604;-68
2021/07/23 10:49:05;;;;;;;;;;;;;;;20.32;55.59;101634.16;5017551;28;1053;-69
2021/07/23 10:51:30;;;;;;;;;;;;;;;20.42;56.60;101637.75;5014480;28;1922;-68
2021/07/23 10:53:55;;;;;;;;;;;;;;;20.37;56.36;101644.59;4997046;28;882;-69
2021/07/23 10:56:20;;;;;;;;;;;;;;;20.39;56.32;101635.34;5029281;28;1894;-69
2021/07/23 10:58:45;;;;;;;;;;;;;;;20.28;56.46;101638.16;5029174;28;1220;-69
2021/07/23 11:01:10;;;;;;;;;;;;;;;20.21;56.71;101642.44;5014096;28;2030;-69
2021/07/23 11:03:43;;;;;;;;;;;;;;;20.21;57.06;101637.03;5017291;28;838;-69
2021/07/23 11:06:08;;;;;;;;;;;;;;;20.27;56.40;101639.16;5032763;28;1672;-69
2021/07/23 11:08:33;;;;;;;;;;;;;;;20.08;57.31;101622.91;5017330;28;954;-69
2021/07/23 11:10:58;;;;;;;;;;;;;;;20.30;57.08;101624.47;5020399;28;1929;-69
2021/07/23 11:13:23;;;;;;;;;;;;;;;20.10;57.50;101624.47;5017199;28;982;-69
2021/07/23 11:15:48;;;;;;;;;;;;;;;20.12;57.23;101624.34;5048898;28;1383;-69
2021/07/23 11:18:13;;;;;;;;;;;;;;;19.97;57.26;101623.06;5016512;28;1910;-69
2021/07/23 11:20:38;;;;;;;;;;;;;;;20.15;56.85;101621.34;5016867;28;846;-69
2021/07/23 11:23:03;;;;;;;;;;;;;;;20.41;56.74;101618.97;5016647;28;808;-69
2021/07/23 11:25:28;;;;;;;;;;;;;;;20.34;56.33;101621.34;5017050;28;855;-69
2021/07/23 11:27:54;;;;;;;;;;;;;;;20.16;57.45;101620.34;5014320;28;1754;-69
2021/07/23 11:30:23;;;;;;;;;;;;;;;20.00;57.02;101618.22;4997270;28;839;-69
2021/07/23 11:32:48;;;;;;;;;;;;;;;20.04;56.44;101610.69;4997267;28;874;-69
2021/07/23 11:35:13;;;;;;;;;;;;;;;20.01;57.44;101609.09;4997026;28;1074;-69
2021/07/23 11:37:39;;;;;;;;;;;;;;;20.08;57.31;101609.38;5010316;28;1898;-69
2021/07/23 11:40:04;;;;;;;;;;;;;;;20.26;56.39;101602.25;5016625;28;854;-69
2021/07/23 11:42:29;;;;;;;;;;;;;;;20.31;55.90;101591.84;5031978;28;954;-69
2021/07/23 11:44:54;;;;;;;;;;;;;;;20.30;56.14;101592.84;5016921;28;875;-69
2021/07/23 11:47:19;;;;;;;;;;;;;;;20.15;56.94;101585.31;5005530;28;1862;-69
2021/07/23 11:49:44;;;;;;;;;;;;;;;20.12;56.68;101589.16;4996816;28;1982;-69
2021/07/23 11:52:09;;;;;;;;;;;;;;;20.15;56.60;101583.47;4996706;28;844;-69
2021/07/23 11:54:35;;;;;;;;;;;;;;;19.96;56.69;101576.22;4996610;28;785;-69
2021/07/23 11:57:00;;;;;;;;;;;;;;;20.08;57.08;101583.16;5006927;28;1894;-69
2021/07/23 11:59:25;;;;;;;;;;;;;;;20.22;56.78;101579.19;5016281;28;1308;-69
2021/07/23 12:01:50;;;;;;;;;;;;;;;20.48;55.45;101576.75;5016396;28;1050;-69
2021/07/23 12:04:15;;;;;;;;;;;;;;;20.37;56.10;101575.06;5016196;28;1063;-69
2021/07/23 12:06:44;;;;;;;;;;;;;;;20.25;56.05;101570.75;5008575;28;1853;-69
2021/07/23 12:09:09;;;;;;;;;;;;;;;20.16;56.46;101563.53;4996421;28;806;-69
2021/07/23 12:11:34;;;;;;;;;;;;;;;20.13;56.10;101558.41;4996306;28;858;-69
2021/07/23 12:14:00;;;;;;;;;;;;;;;20.11;55.94;101552.25;5028190;28;926;-69
2021/07/23 12:16:25;;;;;;;;;;;;;;;20.17;56.30;101554.41;5004041;28;1911;-69
2021/07/23 12:18:50;;;;;;;;;;;;;;;20.31;56.17;101543.13;5016161;28;784;-69
2021/07/23 12:21:15;;;;;;;;;;;;;;;20.35;55.41;101541.00;5016220;28;1125;-69
2021/07/23 12:23:40;;;;;;;;;;;;;;;20.16;56.12;101531.06;5030842;28;1587;-68
2021/07/23 12:26:05;;;;;;;;;;;;;;;20.22;56.23;101533.19;5015598;28;1742;-69
2021/07/23 12:28:30;;;;;;;;;;;;;;;20.17;56.18;101524.63;5015751;28;871;-68
2021/07/23 12:30:56;;;;;;;;;;;;;;;20.20;55.45;101526.22;5015868;28;851;-69
2021/07/23 12:33:21;;;;;;;;;;;;;;;20.34;55.41;101523.03;5015635;28;1951;-69
2021/07/23 12:35:46;;;;;;;;;;;;;;;20.39;54.94;101518.94;5015584;28;1049;-69
2021/07/23 12:38:11;;;;;;;;;;;;;;;20.22;55.74;101516.94;5030697;28;1953;-68